createdAt,value
2022-10-29T00:00:39.912Z,19.00
2022-10-29T00:03:07.201Z,19.90
2022-10-29T00:05:34.915Z,18.83
2022-10-29T00:08:02.412Z,18.65
2022-10-29T00:10:30.010Z,18.65
2022-10-29T00:13:00.627Z,18.42
2022-10-29T00:15:27.740Z,19.98
2022-10-29T00:17:55.152Z,18.83
2022-10-29T00:20:22.659Z,19.83
2022-10-29T00:22:49.767Z,19.77
2022-10-29T00:25:16.948Z,18.45
2022-10-29T00:27:44.157Z,18.90
2022-10-29T00:30:11.712Z,20.85
2022-10-29T00:32:38.833Z,19.05
2022-10-29T00:35:06.271Z,19.85
2022-10-29T00:37:33.399Z,20.10
2022-10-29T00:40:00.519Z,19.50
2022-10-29T00:42:27.822Z,19.45
2022-10-29T00:44:54.943Z,19.55
2022-10-29T00:47:27.089Z,19.80
2022-10-29T00:49:57.373Z,20.08
2022-10-29T00:52:25.870Z,20.13
2022-10-29T00:54:54.412Z,19.55
2022-10-29T00:57:25.436Z,19.70
2022-10-29T00:59:53.042Z,20.20
2022-10-29T01:02:21.051Z,19.40
2022-10-29T01:04:48.332Z,20.80
2022-10-29T01:07:15.712Z,19.70
2022-10-29T01:09:43.062Z,19.45
2022-10-29T01:12:27.487Z,19.50
2022-10-29T01:14:57.601Z,20.20
2022-10-29T01:17:43.342Z,18.23
2022-10-29T01:20:16.691Z,19.27
2022-10-29T01:22:46.656Z,19.30
2022-10-29T01:25:29.448Z,20.13
2022-10-29T01:28:15.211Z,19.27
2022-10-29T01:30:45.375Z,18.83
2022-10-29T01:33:25.796Z,20.17
2022-10-29T01:35:52.877Z,19.30
2022-10-29T01:38:22.711Z,20.20
2022-10-29T01:41:01.487Z,19.27
2022-10-29T01:43:32.731Z,21.05
2022-10-29T01:48:36.119Z,19.33
2022-10-29T01:51:05.512Z,20.08
2022-10-29T01:53:35.883Z,20.90
2022-10-29T01:56:02.995Z,21.13
2022-10-29T01:58:30.312Z,21.60
2022-10-29T02:01:07.576Z,21.00
2022-10-29T02:03:42.685Z,21.40
2022-10-29T02:06:34.172Z,22.30
2022-10-29T02:11:32.059Z,21.35
2022-10-29T02:14:05.332Z,22.20
2022-10-29T02:16:33.714Z,20.88
2022-10-29T02:19:01.232Z,22.27
2022-10-29T02:21:28.454Z,23.55
2022-10-29T02:23:55.647Z,20.85
2022-10-29T02:26:22.813Z,22.27
2022-10-29T02:28:50.077Z,20.35
2022-10-29T02:31:17.203Z,20.25
2022-10-29T02:33:44.311Z,21.60
2022-10-29T02:36:11.601Z,21.27
2022-10-29T02:38:38.727Z,22.00
2022-10-29T02:41:05.874Z,20.60
2022-10-29T02:43:33.123Z,19.70
2022-10-29T02:46:35.989Z,21.65
2022-10-29T02:49:03.284Z,20.65
2022-10-29T02:51:30.383Z,20.77
2022-10-29T02:53:57.498Z,20.33
2022-10-29T02:56:24.675Z,20.88
2022-10-29T02:58:51.821Z,20.58
2022-10-29T03:01:19.101Z,20.98
2022-10-29T03:03:46.396Z,21.08
2022-10-29T03:06:14.376Z,20.70
2022-10-29T03:08:41.636Z,21.40
2022-10-29T03:11:09.122Z,21.00
2022-10-29T03:16:08.338Z,20.40
2022-10-29T03:18:35.681Z,22.13
2022-10-29T03:21:02.869Z,21.63
2022-10-29T03:23:30.068Z,21.83
2022-10-29T03:25:57.422Z,21.65
2022-10-29T03:28:25.250Z,22.05
2022-10-29T03:30:52.448Z,21.20
2022-10-29T03:33:19.609Z,20.42
2022-10-29T03:35:46.795Z,21.10
2022-10-29T03:38:14.096Z,22.15
2022-10-29T03:40:41.286Z,22.15
2022-10-29T03:43:08.392Z,21.15
2022-10-29T03:45:35.496Z,21.17
2022-10-29T03:48:04.748Z,20.70
2022-10-29T03:50:31.868Z,21.15
2022-10-29T03:52:59.148Z,23.40
2022-10-29T03:55:29.170Z,22.70
2022-10-29T03:57:57.017Z,23.55
2022-10-29T04:00:24.393Z,23.40
2022-10-29T04:02:51.748Z,22.70
2022-10-29T04:05:18.883Z,23.48
2022-10-29T04:07:46.006Z,21.25
2022-10-29T04:10:13.285Z,21.27
2022-10-29T04:12:40.426Z,21.70
2022-10-29T04:15:07.847Z,21.02
2022-10-29T04:17:35.059Z,21.95
2022-10-29T04:20:02.200Z,22.15
2022-10-29T04:24:12.228Z,22.52
2022-10-29T04:28:42.565Z,22.52
2022-10-29T04:30:51.110Z,22.75
2022-10-29T04:33:18.242Z,20.48
2022-10-29T04:35:45.347Z,21.17
2022-10-29T04:38:13.092Z,21.23
2022-10-29T04:40:40.204Z,22.45
2022-10-29T04:43:07.322Z,22.55
2022-10-29T04:45:34.728Z,21.70
2022-10-29T04:48:02.713Z,21.98
2022-10-29T04:50:30.572Z,21.33
2022-10-29T04:53:01.496Z,21.88
2022-10-29T04:55:28.980Z,22.85
2022-10-29T04:57:56.615Z,21.45
2022-10-29T05:00:24.588Z,22.92
2022-10-29T05:02:52.684Z,23.00
2022-10-29T05:05:20.531Z,21.95
2022-10-29T05:07:48.064Z,22.67
2022-10-29T05:10:15.288Z,23.05
2022-10-29T05:12:42.398Z,22.00
2022-10-29T05:15:09.711Z,22.27
2022-10-29T05:17:39.676Z,21.85
2022-10-29T05:20:07.369Z,21.20
2022-10-29T05:22:34.639Z,22.02
2022-10-29T05:25:01.753Z,21.83
2022-10-29T05:27:28.909Z,23.27
2022-10-29T05:29:56.168Z,22.70
2022-10-29T05:32:23.559Z,22.70
2022-10-29T05:34:50.814Z,22.88
2022-10-29T05:37:18.083Z,22.55
2022-10-29T05:39:45.192Z,22.88
2022-10-29T05:42:12.319Z,22.90
2022-10-29T05:44:39.565Z,24.00
2022-10-29T05:47:07.464Z,23.52
2022-10-29T05:49:34.709Z,22.13
2022-10-29T05:52:01.951Z,22.00
2022-10-29T05:54:29.069Z,21.35
2022-10-29T05:56:56.179Z,22.25
2022-10-29T05:59:23.384Z,22.08
2022-10-29T06:01:50.593Z,21.90
2022-10-29T06:04:17.874Z,22.13
2022-10-29T06:06:45.173Z,21.27
2022-10-29T06:09:12.294Z,20.42
2022-10-29T06:11:39.409Z,21.25
2022-10-29T06:14:06.705Z,19.42
2022-10-29T06:16:33.891Z,20.65
2022-10-29T06:19:01.025Z,21.33
2022-10-29T06:21:28.303Z,20.30
2022-10-29T06:23:55.789Z,19.30
2022-10-29T06:26:22.919Z,20.90
2022-10-29T06:28:50.109Z,19.58
2022-10-29T06:31:17.250Z,20.88
2022-10-29T06:33:44.374Z,20.13
2022-10-29T06:36:11.546Z,20.42
2022-10-29T06:38:38.683Z,20.40
2022-10-29T06:41:05.910Z,20.88
2022-10-29T06:43:33.162Z,19.23
2022-10-29T06:46:00.275Z,19.35
2022-10-29T06:48:27.420Z,18.95
2022-10-29T06:50:54.607Z,20.35
2022-10-29T06:53:21.733Z,18.48
2022-10-29T06:55:49.285Z,18.75
2022-10-29T06:58:17.633Z,19.83
2022-10-29T07:00:45.068Z,19.52
2022-10-29T07:03:16.238Z,20.65
2022-10-29T07:05:43.508Z,19.05
2022-10-29T07:08:11.055Z,19.88
2022-10-29T07:10:38.494Z,19.08
2022-10-29T07:13:05.767Z,19.98
2022-10-29T07:15:33.036Z,18.77
2022-10-29T07:18:01.065Z,18.08
2022-10-29T07:20:29.226Z,20.27
2022-10-29T07:22:57.691Z,17.48
2022-10-29T07:25:25.124Z,17.20
2022-10-29T07:27:52.776Z,16.85
2022-10-29T07:30:19.980Z,16.83
2022-10-29T07:32:47.197Z,17.20
2022-10-29T07:35:14.515Z,17.55
2022-10-29T07:37:41.651Z,18.23
2022-10-29T07:40:09.052Z,18.75
2022-10-29T07:42:36.419Z,18.00
2022-10-29T07:45:03.573Z,17.35
2022-10-29T07:47:30.673Z,18.48
2022-10-29T07:49:57.968Z,16.67
2022-10-29T07:52:25.089Z,17.20
2022-10-29T07:54:52.214Z,15.73
2022-10-29T07:57:19.486Z,16.27
2022-10-29T07:59:47.036Z,15.27
2022-10-29T08:02:14.237Z,16.13
2022-10-29T08:04:41.467Z,16.63
2022-10-29T08:07:08.563Z,15.95
2022-10-29T08:09:35.715Z,16.50
2022-10-29T08:12:05.175Z,15.82
2022-10-29T08:14:32.322Z,16.17
2022-10-29T08:16:59.434Z,16.40
2022-10-29T08:19:26.641Z,14.77
2022-10-29T08:21:53.759Z,15.90
2022-10-29T08:24:20.882Z,14.05
2022-10-29T08:26:48.124Z,14.55
2022-10-29T08:29:15.231Z,14.48
2022-10-29T08:31:42.375Z,15.13
2022-10-29T08:34:11.193Z,15.07
2022-10-29T08:36:38.611Z,14.48
2022-10-29T08:39:05.789Z,13.15
2022-10-29T08:41:56.122Z,13.90
2022-10-29T08:44:42.028Z,13.43
2022-10-29T08:47:22.576Z,12.85
2022-10-29T08:50:16.424Z,13.00
2022-10-29T08:52:53.214Z,12.45
2022-10-29T08:55:36.271Z,12.90
2022-10-29T08:58:11.757Z,12.95
2022-10-29T09:00:42.025Z,12.20
2022-10-29T09:03:13.334Z,12.70
2022-10-29T09:05:43.500Z,11.73
2022-10-29T09:08:22.168Z,11.70
2022-10-29T09:10:54.828Z,10.18
2022-10-29T09:13:40.539Z,10.23
2022-10-29T09:16:15.214Z,10.93
2022-10-29T09:19:01.229Z,10.85
2022-10-29T09:21:46.435Z,11.52
2022-10-29T09:24:29.092Z,10.20
2022-10-29T09:26:59.979Z,11.02
2022-10-29T09:29:33.307Z,10.60
2022-10-29T09:32:02.364Z,10.73
2022-10-29T09:34:31.269Z,11.27
2022-10-29T09:36:59.654Z,10.40
2022-10-29T09:39:33.879Z,10.90
2022-10-29T09:42:03.068Z,11.52
2022-10-29T09:44:44.372Z,11.75
2022-10-29T09:47:20.397Z,11.85
2022-10-29T09:50:25.832Z,11.90
2022-10-29T09:52:53.600Z,11.52
2022-10-29T09:55:23.713Z,9.85
2022-10-29T09:57:51.064Z,10.07
2022-10-29T10:00:20.299Z,10.30
2022-10-29T10:02:58.043Z,9.70
2022-10-29T10:05:30.227Z,9.32
2022-10-29T10:08:12.861Z,9.82
2022-10-29T10:10:51.913Z,9.70
2022-10-29T10:13:21.773Z,9.88
2022-10-29T10:15:53.446Z,9.20
2022-10-29T10:18:46.590Z,9.07
2022-10-29T10:21:15.364Z,9.60
2022-10-29T10:23:51.708Z,9.35
2022-10-29T10:26:40.106Z,10.27
2022-10-29T10:29:16.302Z,9.90
2022-10-29T10:31:44.677Z,9.82
2022-10-29T10:34:15.908Z,9.68
2022-10-29T10:36:44.613Z,10.05
2022-10-29T10:39:34.991Z,9.32
2022-10-29T10:42:07.487Z,10.98
2022-10-29T10:44:35.343Z,10.63
2022-10-29T10:47:06.279Z,11.23
2022-10-29T10:49:37.487Z,11.45
2022-10-29T10:52:06.347Z,11.60
2022-10-29T10:54:36.998Z,11.43
2022-10-29T10:57:04.452Z,10.70
2022-10-29T10:59:50.373Z,11.07
2022-10-29T11:02:27.931Z,11.73
2022-10-29T11:05:17.564Z,11.90
2022-10-29T11:07:57.264Z,13.45
2022-10-29T11:10:28.306Z,15.35
2022-10-29T11:12:56.275Z,14.60
2022-10-29T11:15:41.894Z,12.52
2022-10-29T11:18:18.317Z,12.55
2022-10-29T11:20:49.127Z,12.13
2022-10-29T11:23:25.259Z,11.60
2022-10-29T11:25:57.242Z,11.57
2022-10-29T11:28:30.180Z,11.77
2022-10-29T11:31:00.629Z,11.65
2022-10-29T11:33:45.860Z,10.15
2022-10-29T11:36:17.887Z,10.80
2022-10-29T11:38:47.851Z,9.75
2022-10-29T11:41:22.873Z,10.75
2022-10-29T11:43:50.037Z,9.60
2022-10-29T11:46:32.165Z,9.38
2022-10-29T11:48:59.264Z,9.10
2022-10-29T11:51:36.278Z,9.15
2022-10-29T11:54:07.824Z,9.25
2022-10-29T11:56:53.270Z,9.88
2022-10-29T11:59:20.383Z,9.05
2022-10-29T12:01:56.108Z,9.13
2022-10-29T12:04:49.401Z,9.85
2022-10-29T12:07:30.152Z,9.30
2022-10-29T12:10:17.567Z,9.40
2022-10-29T12:12:49.669Z,10.07
2022-10-29T12:15:35.342Z,8.90
2022-10-29T12:18:02.614Z,9.75
2022-10-29T12:20:40.537Z,9.85
2022-10-29T12:23:26.554Z,9.90
2022-10-29T12:26:03.025Z,9.55
2022-10-29T12:28:30.262Z,9.65
2022-10-29T12:31:00.179Z,11.07
2022-10-29T12:33:47.659Z,10.00
2022-10-29T12:36:15.286Z,9.52
2022-10-29T12:38:43.653Z,9.52
2022-10-29T12:41:15.804Z,9.77
2022-10-29T12:43:43.442Z,9.50
2022-10-29T12:46:25.387Z,9.57
2022-10-29T12:48:58.514Z,9.15
2022-10-29T12:51:48.568Z,9.25
2022-10-29T12:54:28.073Z,8.63
2022-10-29T12:56:57.360Z,8.88
2022-10-29T12:59:24.437Z,8.77
2022-10-29T13:04:39.547Z,9.32
2022-10-29T13:07:18.718Z,8.40
2022-10-29T13:09:48.375Z,8.82
2022-10-29T13:12:35.730Z,8.13
2022-10-29T13:15:10.095Z,8.40
2022-10-29T13:17:38.928Z,7.32
2022-10-29T13:20:21.632Z,7.13
2022-10-29T13:22:53.380Z,7.90
2022-10-29T13:25:29.433Z,7.72
2022-10-29T13:27:56.543Z,7.40
2022-10-29T13:30:27.504Z,6.85
2022-10-29T13:32:55.822Z,7.78
2022-10-29T13:35:23.138Z,7.13
2022-10-29T13:37:51.628Z,7.72
2022-10-29T13:40:34.181Z,7.53
2022-10-29T13:43:05.504Z,6.85
2022-10-29T13:45:34.627Z,7.53
2022-10-29T13:48:04.385Z,8.48
2022-10-29T13:50:32.109Z,7.45
2022-10-29T13:53:00.143Z,8.63
2022-10-29T13:55:27.767Z,7.65
2022-10-29T13:57:57.872Z,7.80
2022-10-29T14:00:25.336Z,8.35
2022-10-29T14:02:52.469Z,7.75
2022-10-29T14:05:24.541Z,8.38
2022-10-29T14:07:51.790Z,8.85
2022-10-29T14:10:22.705Z,9.05
2022-10-29T14:12:50.700Z,8.43
2022-10-29T14:15:18.726Z,8.52
2022-10-29T14:17:45.928Z,8.57
2022-10-29T14:20:23.522Z,8.35
2022-10-29T14:22:50.626Z,8.68
2022-10-29T14:25:27.477Z,8.88
2022-10-29T14:28:14.821Z,8.07
2022-10-29T14:30:42.005Z,8.15
2022-10-29T14:33:38.443Z,8.27
2022-10-29T14:36:08.685Z,8.68
2022-10-29T14:38:40.915Z,7.57
2022-10-29T14:41:08.264Z,8.32
2022-10-29T14:43:35.568Z,7.95
2022-10-29T14:46:14.024Z,8.00
2022-10-29T14:48:47.635Z,8.30
2022-10-29T14:51:19.616Z,7.82
2022-10-29T14:53:46.852Z,7.30
2022-10-29T14:56:19.573Z,7.53
2022-10-29T14:58:47.223Z,7.70
2022-10-29T15:01:16.503Z,7.55
2022-10-29T15:03:43.797Z,7.78
2022-10-29T15:06:12.560Z,7.57
2022-10-29T15:08:40.927Z,7.25
2022-10-29T15:11:28.053Z,8.63
2022-10-29T15:13:55.193Z,8.00
2022-10-29T15:16:22.456Z,7.82
2022-10-29T15:18:50.752Z,7.70
2022-10-29T15:21:22.526Z,7.93
2022-10-29T15:23:50.013Z,8.50
2022-10-29T15:26:20.808Z,7.63
2022-10-29T15:28:49.053Z,7.28
2022-10-29T15:31:21.601Z,7.18
2022-10-29T15:33:51.743Z,8.68
2022-10-29T15:36:19.077Z,7.68
2022-10-29T15:38:52.313Z,7.03
2022-10-29T15:41:39.782Z,8.00
2022-10-29T15:44:26.758Z,7.70
2022-10-29T15:46:58.844Z,6.95
2022-10-29T15:49:31.344Z,7.28
2022-10-29T15:52:00.725Z,6.60
2022-10-29T15:54:28.548Z,6.72
2022-10-29T15:56:55.658Z,6.57
2022-10-29T15:59:24.360Z,5.93
2022-10-29T16:01:51.641Z,6.32
2022-10-29T16:04:18.830Z,7.10
2022-10-29T16:06:45.953Z,6.45
2022-10-29T16:09:18.173Z,6.50
2022-10-29T16:11:45.538Z,6.22
2022-10-29T16:14:12.976Z,6.50
2022-10-29T16:16:40.235Z,6.70
2022-10-29T16:19:08.193Z,6.90
2022-10-29T16:21:35.476Z,7.70
2022-10-29T16:24:02.668Z,6.40
2022-10-29T16:26:29.853Z,7.25
2022-10-29T16:28:57.075Z,6.07
2022-10-29T16:31:28.233Z,6.68
2022-10-29T16:36:22.410Z,6.43
2022-10-29T16:38:49.580Z,6.53
2022-10-29T16:41:18.081Z,6.25
2022-10-29T16:43:45.640Z,6.18
2022-10-29T16:46:13.543Z,6.15
2022-10-29T16:48:40.940Z,6.05
2022-10-29T16:51:08.405Z,5.63
2022-10-29T16:53:36.126Z,5.50
2022-10-29T16:56:03.512Z,5.47
2022-10-29T16:58:30.735Z,5.80
2022-10-29T17:01:05.205Z,5.22
2022-10-29T17:03:33.215Z,5.43
2022-10-29T17:06:05.255Z,5.28
2022-10-29T17:08:33.355Z,5.18
2022-10-29T17:11:01.426Z,5.47
2022-10-29T17:13:28.882Z,5.40
2022-10-29T17:15:56.297Z,4.95
2022-10-29T17:18:24.649Z,6.10
2022-10-29T17:20:55.588Z,5.45
2022-10-29T17:23:22.748Z,5.63
2022-10-29T17:25:56.424Z,5.45
2022-10-29T17:28:24.067Z,5.38
2022-10-29T17:30:51.428Z,6.32
2022-10-29T17:33:19.239Z,5.22
2022-10-29T17:35:46.408Z,5.50
2022-10-29T17:38:13.610Z,4.95
2022-10-29T17:40:40.887Z,4.82
2022-10-29T17:43:08.122Z,5.55
2022-10-29T17:45:36.952Z,5.05
2022-10-29T17:48:04.327Z,5.40
2022-10-29T17:50:31.496Z,5.93
2022-10-29T17:52:59.145Z,5.95
2022-10-29T17:55:26.334Z,5.05
2022-10-29T17:57:53.560Z,5.68
2022-10-29T18:00:20.760Z,5.70
2022-10-29T18:02:51.223Z,5.82
2022-10-29T18:05:18.686Z,6.15
2022-10-29T18:07:45.878Z,5.97
2022-10-29T18:10:13.128Z,5.90
2022-10-29T18:12:40.343Z,5.93
2022-10-29T18:15:07.814Z,5.97
2022-10-29T18:17:36.645Z,6.78
2022-10-29T18:20:03.933Z,5.45
2022-10-29T18:22:31.071Z,5.65
2022-10-29T18:24:58.672Z,6.43
2022-10-29T18:27:25.835Z,5.82
2022-10-29T18:29:52.983Z,5.63
2022-10-29T18:32:20.280Z,6.30
2022-10-29T18:34:47.456Z,6.13
2022-10-29T18:37:14.623Z,5.82
2022-10-29T18:39:41.827Z,5.60
2022-10-29T18:42:08.972Z,5.45
2022-10-29T18:44:36.940Z,5.80
2022-10-29T18:47:04.170Z,6.55
2022-10-29T18:49:31.321Z,6.00
2022-10-29T18:51:58.520Z,6.32
2022-10-29T18:54:25.969Z,6.10
2022-10-29T18:56:53.220Z,6.10
2022-10-29T18:59:21.497Z,5.97
2022-10-29T19:01:48.816Z,6.50
2022-10-29T19:04:16.597Z,6.22
2022-10-29T19:06:44.106Z,6.28
2022-10-29T19:09:11.860Z,6.70
2022-10-29T19:11:39.118Z,6.38
2022-10-29T19:14:07.942Z,6.85
2022-10-29T19:16:35.268Z,6.68
2022-10-29T19:21:36.788Z,6.00
2022-10-29T19:24:04.729Z,7.03
2022-10-29T19:26:33.488Z,6.25
2022-10-29T19:29:01.517Z,6.75
2022-10-29T19:31:30.054Z,6.30
2022-10-29T19:34:01.043Z,7.13
2022-10-29T19:36:29.257Z,7.35
2022-10-29T19:38:56.762Z,6.25
2022-10-29T19:41:24.199Z,6.38
2022-10-29T19:43:51.727Z,6.15
2022-10-29T19:46:22.899Z,5.60
2022-10-29T19:51:17.822Z,7.05
2022-10-29T19:53:44.953Z,6.63
2022-10-29T19:56:12.663Z,7.07
2022-10-29T19:58:39.929Z,6.50
2022-10-29T20:01:08.268Z,7.50
2022-10-29T20:03:36.337Z,7.57
2022-10-29T20:06:03.696Z,7.72
2022-10-29T20:08:30.926Z,7.60
2022-10-29T20:10:58.578Z,7.80
2022-10-29T20:13:26.037Z,7.63
2022-10-29T20:15:53.637Z,7.90
2022-10-29T20:18:21.171Z,7.93
2022-10-29T20:20:54.422Z,7.57
2022-10-29T20:23:21.699Z,7.82
2022-10-29T20:25:48.871Z,7.78
2022-10-29T20:28:16.326Z,8.18
2022-10-29T20:30:43.445Z,7.68
2022-10-29T20:33:10.736Z,7.82
2022-10-29T20:35:38.094Z,7.78
2022-10-29T20:38:05.917Z,7.68
2022-10-29T20:40:33.106Z,7.20
2022-10-29T20:43:00.398Z,8.10
2022-10-29T20:45:27.573Z,8.63
2022-10-29T20:47:54.940Z,7.63
2022-10-29T20:50:22.541Z,7.57
2022-10-29T20:52:51.300Z,8.23
2022-10-29T20:55:18.449Z,7.65
2022-10-29T20:57:45.621Z,7.75
2022-10-29T21:00:12.969Z,8.15
2022-10-29T21:02:40.178Z,7.55
2022-10-29T21:05:07.521Z,8.02
2022-10-29T21:07:34.672Z,7.50
2022-10-29T21:10:01.788Z,8.30
2022-10-29T21:12:28.986Z,8.70
2022-10-29T21:14:56.131Z,8.23
2022-10-29T21:17:23.305Z,8.02
2022-10-29T21:19:50.496Z,7.82
2022-10-29T21:22:19.087Z,8.88
2022-10-29T21:24:46.452Z,8.50
2022-10-29T21:27:13.736Z,8.88
2022-10-29T21:29:40.857Z,9.05
2022-10-29T21:32:12.777Z,8.10
2022-10-29T21:34:43.071Z,8.60
2022-10-29T21:37:10.195Z,7.88
2022-10-29T21:39:37.307Z,8.23
2022-10-29T21:42:04.728Z,8.43
2022-10-29T21:44:31.845Z,8.07
2022-10-29T21:46:58.968Z,8.45
2022-10-29T21:49:26.136Z,8.43
2022-10-29T21:51:53.262Z,8.93
2022-10-29T21:54:21.997Z,8.82
2022-10-29T21:56:51.550Z,8.63
2022-10-29T21:59:18.672Z,9.23
2022-10-29T22:01:45.887Z,8.95
2022-10-29T22:04:13.176Z,9.05
2022-10-29T22:06:40.284Z,9.50
2022-10-29T22:09:07.487Z,9.25
2022-10-29T22:11:34.800Z,9.10
2022-10-29T22:14:02.001Z,8.68
2022-10-29T22:16:29.110Z,8.18
2022-10-29T22:18:56.397Z,8.80
2022-10-29T22:21:24.604Z,9.05
2022-10-29T22:23:52.970Z,8.73
2022-10-29T22:26:21.316Z,10.10
2022-10-29T22:28:48.807Z,8.50
2022-10-29T22:31:16.638Z,10.10
2022-10-29T22:33:44.274Z,10.65
2022-10-29T22:36:12.642Z,9.38
2022-10-29T22:38:39.792Z,9.85
2022-10-29T22:41:16.824Z,10.30
2022-10-29T22:43:44.548Z,10.02
2022-10-29T22:46:12.863Z,9.45
2022-10-29T22:48:40.039Z,9.55
2022-10-29T22:51:27.406Z,9.85
2022-10-29T22:53:54.908Z,9.10
2022-10-29T22:56:21.994Z,9.02
2022-10-29T22:58:49.157Z,10.00
2022-10-29T23:01:17.888Z,9.70
2022-10-29T23:03:45.222Z,9.95
2022-10-29T23:06:13.459Z,9.90
2022-10-29T23:08:40.626Z,10.27
2022-10-29T23:11:09.001Z,9.68
2022-10-29T23:13:36.184Z,10.25
2022-10-29T23:16:03.409Z,9.52
2022-10-29T23:18:30.536Z,10.27
2022-10-29T23:21:01.845Z,10.25
2022-10-29T23:23:29.440Z,10.07
2022-10-29T23:26:00.933Z,9.98
2022-10-29T23:28:32.154Z,10.75
2022-10-29T23:33:26.602Z,9.40
2022-10-29T23:35:53.796Z,9.13
2022-10-29T23:38:20.933Z,10.57
2022-10-29T23:40:48.945Z,9.63
2022-10-29T23:43:16.147Z,10.75
2022-10-29T23:45:43.543Z,10.00
2022-10-29T23:48:10.896Z,10.00
2022-10-29T23:50:38.323Z,10.50
2022-10-29T23:53:06.936Z,10.13
2022-10-29T23:55:34.440Z,10.10
2022-10-29T23:58:02.072Z,10.20
